createdAt,value
2023-11-07T00:01:32.761Z,13.58
2023-11-07T00:04:09.350Z,13.48
2023-11-07T00:06:37.071Z,13.60
2023-11-07T00:09:04.835Z,13.67
2023-11-07T00:11:32.201Z,13.73
2023-11-07T00:13:59.797Z,13.71
2023-11-07T00:16:28.948Z,13.79
2023-11-07T00:18:57.483Z,13.89
2023-11-07T00:21:25.411Z,13.94
2023-11-07T00:23:53.106Z,13.92
2023-11-07T00:26:21.689Z,13.86
2023-11-07T00:28:53.209Z,13.90
2023-11-07T00:31:20.504Z,13.90
2023-11-07T00:33:48.201Z,13.91
2023-11-07T00:36:17.516Z,13.91
2023-11-07T00:38:45.613Z,13.89
2023-11-07T00:41:14.650Z,13.81
2023-11-07T00:43:45.663Z,13.84
2023-11-07T00:46:13.023Z,13.92
2023-11-07T00:48:40.767Z,13.93
2023-11-07T00:51:08.959Z,13.96
2023-11-07T00:53:40.156Z,14.00
2023-11-07T00:56:10.965Z,13.98
2023-11-07T00:58:38.711Z,13.99
2023-11-07T01:01:06.387Z,13.94
2023-11-07T01:03:35.224Z,13.88
2023-11-07T01:06:06.092Z,13.86
2023-11-07T01:08:35.356Z,13.87
2023-11-07T01:11:02.814Z,13.88
2023-11-07T01:13:31.339Z,13.87
2023-11-07T01:16:03.393Z,13.89
2023-11-07T01:18:31.505Z,13.87
2023-11-07T01:20:59.646Z,14.00
2023-11-07T01:23:27.519Z,14.06
2023-11-07T01:25:55.241Z,14.06
2023-11-07T01:28:24.116Z,14.08
2023-11-07T01:30:52.686Z,14.26
2023-11-07T01:33:20.473Z,14.39
2023-11-07T01:35:48.072Z,14.40
2023-11-07T01:38:15.826Z,14.50
2023-11-07T01:40:42.986Z,14.57
2023-11-07T01:43:15.040Z,14.64
2023-11-07T01:45:43.375Z,14.62
2023-11-07T01:48:19.465Z,14.58
2023-11-07T01:50:46.760Z,14.57
2023-11-07T01:53:14.968Z,14.65
2023-11-07T01:55:43.828Z,14.70
2023-11-07T01:58:11.877Z,14.63
2023-11-07T02:00:41.426Z,14.55
2023-11-07T02:03:09.662Z,14.65
2023-11-07T02:05:37.147Z,14.69
2023-11-07T02:08:06.810Z,14.74
2023-11-07T02:10:34.191Z,14.61
2023-11-07T02:13:01.850Z,14.53
2023-11-07T02:15:29.188Z,14.47
2023-11-07T02:17:57.212Z,14.48
2023-11-07T02:20:25.518Z,14.40
2023-11-07T02:23:10.695Z,14.43
2023-11-07T02:25:40.182Z,14.33
2023-11-07T02:28:08.577Z,14.28
2023-11-07T02:30:35.885Z,14.19
2023-11-07T02:33:06.008Z,14.01
2023-11-07T02:35:33.902Z,14.05
2023-11-07T02:38:02.069Z,14.31
2023-11-07T02:40:30.442Z,14.38
2023-11-07T02:43:01.057Z,14.39
2023-11-07T02:45:29.775Z,14.44
2023-11-07T02:47:57.642Z,14.52
2023-11-07T02:50:25.107Z,14.47
2023-11-07T02:52:52.784Z,14.48
2023-11-07T02:55:20.127Z,14.40
2023-11-07T02:57:48.758Z,14.36
2023-11-07T03:00:16.924Z,14.35
2023-11-07T03:02:44.904Z,14.25
2023-11-07T03:05:13.882Z,14.15
2023-11-07T03:07:41.544Z,14.06
2023-11-07T03:10:10.446Z,14.04
2023-11-07T03:12:38.057Z,14.02
2023-11-07T03:15:06.250Z,14.03
2023-11-07T03:17:35.571Z,14.16
2023-11-07T03:20:10.167Z,14.10
2023-11-07T03:22:38.037Z,14.12
2023-11-07T03:25:05.963Z,14.11
2023-11-07T03:27:34.568Z,14.03
2023-11-07T03:30:07.727Z,13.95
2023-11-07T03:32:36.146Z,13.82
2023-11-07T03:35:06.165Z,13.69
2023-11-07T03:37:34.400Z,13.58
2023-11-07T03:40:05.350Z,13.52
2023-11-07T03:42:36.543Z,13.40
2023-11-07T03:45:04.993Z,13.38
2023-11-07T03:47:34.752Z,13.25
2023-11-07T03:50:04.242Z,13.25
2023-11-07T03:52:32.235Z,13.24
2023-11-07T03:54:59.529Z,13.16
2023-11-07T03:57:27.354Z,13.07
2023-11-07T03:59:55.752Z,13.00
2023-11-07T04:02:23.745Z,12.87
2023-11-07T04:04:51.271Z,12.89
2023-11-07T04:07:18.938Z,13.18
2023-11-07T04:09:46.506Z,13.38
2023-11-07T04:12:15.216Z,13.51
2023-11-07T04:14:45.080Z,13.57
2023-11-07T04:17:13.464Z,13.78
2023-11-07T04:19:40.846Z,13.66
2023-11-07T04:22:09.057Z,13.64
2023-11-07T04:24:38.738Z,13.57
2023-11-07T04:27:08.704Z,13.56
2023-11-07T04:29:36.199Z,13.35
2023-11-07T04:32:04.246Z,13.18
2023-11-07T04:34:31.556Z,13.08
2023-11-07T04:37:00.141Z,13.02
2023-11-07T04:39:28.353Z,12.98
2023-11-07T04:41:56.234Z,12.93
2023-11-07T04:44:25.921Z,12.87
2023-11-07T04:46:54.068Z,12.92
2023-11-07T04:49:21.685Z,12.87
2023-11-07T04:51:49.557Z,12.80
2023-11-07T04:54:16.996Z,12.76
2023-11-07T04:56:45.598Z,12.79
2023-11-07T04:59:14.606Z,12.85
2023-11-07T05:01:42.351Z,12.87
2023-11-07T05:04:13.952Z,12.87
2023-11-07T05:06:43.016Z,12.92
2023-11-07T05:09:13.984Z,12.81
2023-11-07T05:11:42.573Z,12.79
2023-11-07T05:14:11.925Z,12.82
2023-11-07T05:16:45.359Z,12.85
2023-11-07T05:19:16.255Z,12.85
2023-11-07T05:21:44.175Z,12.88
2023-11-07T05:24:14.293Z,12.92
2023-11-07T05:26:41.944Z,12.91
2023-11-07T05:33:47.052Z,12.95
2023-11-07T05:36:17.303Z,12.90
2023-11-07T05:38:45.769Z,12.86
2023-11-07T05:41:13.572Z,12.87
2023-11-07T05:43:47.726Z,12.90
2023-11-07T05:46:23.601Z,12.94
2023-11-07T05:48:53.132Z,12.93
2023-11-07T05:51:28.919Z,12.94
2023-11-07T05:54:03.333Z,13.01
2023-11-07T05:56:31.278Z,13.09
2023-11-07T06:03:34.137Z,13.08
2023-11-07T06:06:01.835Z,13.06
2023-11-07T06:08:29.947Z,13.16
2023-11-07T06:10:58.592Z,13.21
2023-11-07T06:13:26.813Z,13.21
2023-11-07T06:15:55.723Z,13.38
2023-11-07T06:18:23.677Z,13.38
2023-11-07T06:20:52.594Z,13.48
2023-11-07T06:23:21.709Z,13.51
2023-11-07T06:25:52.361Z,13.56
2023-11-07T06:28:28.376Z,13.60
2023-11-07T06:30:55.962Z,13.65
2023-11-07T06:33:25.079Z,13.63
2023-11-07T06:35:55.424Z,13.69
2023-11-07T06:38:27.102Z,13.82
2023-11-07T06:40:54.489Z,13.79
2023-11-07T06:43:22.372Z,13.71
2023-11-07T06:45:50.731Z,13.69
2023-11-07T06:48:18.372Z,13.70
2023-11-07T06:50:47.627Z,13.67
2023-11-07T06:53:15.252Z,13.69
2023-11-07T06:55:42.666Z,13.54
2023-11-07T06:58:10.776Z,13.64
2023-11-07T07:00:40.217Z,13.50
2023-11-07T07:03:08.167Z,13.60
2023-11-07T07:05:35.824Z,13.53
2023-11-07T07:08:04.905Z,13.55
2023-11-07T07:10:33.454Z,13.59
2023-11-07T07:13:01.339Z,13.66
2023-11-07T07:15:28.879Z,13.65
2023-11-07T07:17:56.542Z,13.81
2023-11-07T07:20:24.335Z,13.81
2023-11-07T07:22:53.462Z,13.89
2023-11-07T07:25:22.495Z,13.95
2023-11-07T07:32:22.408Z,14.05
2023-11-07T07:34:52.826Z,14.14
2023-11-07T07:37:22.204Z,14.19
2023-11-07T07:39:49.520Z,14.37
2023-11-07T07:42:18.825Z,14.49
2023-11-07T07:44:46.816Z,14.56
2023-11-07T07:47:16.954Z,14.68
2023-11-07T07:49:46.017Z,14.73
2023-11-07T07:52:13.641Z,14.89
2023-11-07T07:55:00.634Z,15.05
2023-11-07T07:57:29.540Z,15.12
2023-11-07T08:00:00.959Z,15.15
2023-11-07T08:02:28.791Z,15.16
2023-11-07T08:04:58.030Z,15.24
2023-11-07T08:07:25.950Z,15.28
2023-11-07T08:09:53.290Z,15.31
2023-11-07T08:12:22.476Z,15.38
2023-11-07T08:14:49.743Z,15.51
2023-11-07T08:17:18.825Z,15.56
2023-11-07T08:19:47.602Z,15.53
2023-11-07T08:22:15.800Z,15.69
2023-11-07T08:24:43.830Z,15.72
2023-11-07T08:31:45.467Z,15.75
2023-11-07T08:34:13.177Z,15.72
2023-11-07T08:36:48.403Z,15.58
2023-11-07T08:39:29.001Z,15.73
2023-11-07T08:41:57.537Z,15.70
2023-11-07T08:44:24.883Z,15.57
2023-11-07T08:46:52.431Z,15.67
2023-11-07T08:49:50.237Z,15.68
2023-11-07T08:52:19.725Z,15.68
2023-11-07T08:54:47.084Z,15.88
2023-11-07T08:57:14.702Z,15.74
2023-11-07T08:59:46.051Z,16.05
2023-11-07T09:02:15.350Z,16.23
2023-11-07T09:04:44.841Z,16.10
2023-11-07T09:07:13.821Z,16.21
2023-11-07T09:09:41.187Z,16.29
2023-11-07T09:12:11.680Z,16.57
2023-11-07T09:14:38.983Z,16.73
2023-11-07T09:17:06.682Z,17.31
2023-11-07T09:19:34.143Z,17.74
2023-11-07T09:22:02.588Z,18.02
2023-11-07T09:24:30.256Z,18.14
2023-11-07T09:26:57.867Z,18.55
2023-11-07T09:29:26.179Z,18.42
2023-11-07T09:31:54.946Z,18.21
2023-11-07T09:34:22.513Z,19.16
2023-11-07T09:36:50.229Z,20.02
2023-11-07T09:39:17.599Z,19.59
2023-11-07T09:41:46.648Z,19.64
2023-11-07T09:44:15.161Z,19.69
2023-11-07T09:46:50.842Z,20.28
2023-11-07T09:49:22.049Z,21.13
2023-11-07T09:51:53.823Z,21.48
2023-11-07T09:54:26.542Z,21.03
2023-11-07T09:56:57.188Z,20.66
2023-11-07T09:59:54.125Z,21.48
2023-11-07T10:02:23.444Z,19.87
2023-11-07T10:04:54.114Z,20.35
2023-11-07T10:07:23.277Z,19.98
2023-11-07T10:09:56.195Z,19.89
2023-11-07T10:12:24.169Z,19.49
2023-11-07T10:14:52.694Z,19.64
2023-11-07T10:17:24.384Z,20.09
2023-11-07T10:20:16.406Z,20.78
2023-11-07T10:22:48.396Z,22.03
2023-11-07T10:25:51.541Z,21.97
2023-11-07T10:28:23.724Z,22.20
2023-11-07T10:30:52.017Z,22.64
2023-11-07T10:33:30.477Z,22.88
2023-11-07T10:36:01.765Z,22.43
2023-11-07T10:38:31.038Z,21.40
2023-11-07T10:41:00.189Z,20.94
2023-11-07T10:43:39.537Z,21.01
2023-11-07T10:46:12.503Z,20.42
2023-11-07T12:28:12.592Z,19.03
2023-11-07T14:24:27.991Z,19.31
2023-11-07T14:27:07.222Z,19.21
2023-11-07T14:29:55.144Z,19.07
2023-11-07T14:32:25.388Z,18.96
2023-11-07T14:34:54.011Z,18.87
2023-11-07T14:37:21.711Z,18.80
2023-11-07T14:39:50.333Z,18.77
2023-11-07T14:42:18.305Z,18.65
2023-11-07T14:44:47.003Z,18.63
2023-11-07T14:47:14.776Z,18.55
2023-11-07T14:49:44.504Z,18.48
2023-11-07T14:52:17.681Z,18.41
2023-11-07T14:54:54.500Z,18.35
2023-11-07T15:07:07.967Z,18.18
2023-11-07T15:09:38.903Z,18.07
2023-11-07T15:12:11.607Z,18.13
2023-11-07T15:24:28.070Z,18.11
2023-11-07T15:26:55.639Z,18.12
2023-11-07T15:29:23.626Z,18.10
2023-11-07T15:31:51.601Z,18.12
2023-11-07T15:34:21.114Z,18.04
2023-11-07T15:36:48.595Z,17.99
2023-11-07T15:39:19.086Z,18.12
2023-11-07T15:41:47.378Z,18.06
2023-11-07T15:44:16.897Z,18.01
2023-11-07T15:46:45.099Z,18.03
2023-11-07T15:49:12.978Z,17.99
2023-11-07T15:51:40.536Z,17.96
2023-11-07T15:54:08.280Z,17.96
2023-11-07T15:56:35.687Z,18.04
2023-11-07T15:59:05.727Z,17.93
2023-11-07T16:01:33.956Z,17.98
2023-11-07T16:04:01.810Z,17.94
2023-11-07T16:06:29.838Z,17.92
2023-11-07T16:08:58.190Z,17.91
2023-11-07T16:11:25.524Z,17.89
2023-11-07T16:13:54.323Z,17.85
2023-11-07T16:16:23.780Z,17.85
2023-11-07T16:18:56.101Z,17.84
2023-11-07T16:21:28.341Z,17.83
2023-11-07T16:24:00.425Z,17.82
2023-11-07T16:26:42.939Z,17.81
2023-11-07T16:29:12.131Z,17.78
2023-11-07T16:32:07.369Z,17.67
2023-11-07T16:34:38.481Z,17.67
2023-11-07T16:37:08.166Z,17.68
2023-11-07T16:39:39.662Z,17.60
2023-11-07T16:42:11.972Z,17.57
2023-11-07T16:44:41.338Z,17.55
2023-11-07T16:47:13.609Z,17.47
2023-11-07T16:49:44.300Z,17.43
2023-11-07T16:52:16.583Z,17.41
2023-11-07T16:54:45.323Z,17.38
2023-11-07T16:57:20.685Z,17.39
2023-11-07T17:00:12.135Z,17.38
2023-11-07T17:03:09.802Z,17.42
2023-11-07T17:40:11.156Z,17.04
2023-11-07T17:42:41.089Z,17.07
2023-11-07T17:45:12.501Z,17.03
2023-11-07T18:03:30.431Z,16.96
2023-11-07T18:11:06.610Z,16.98
2023-11-07T18:22:34.100Z,16.99
2023-11-07T18:25:03.933Z,16.97
2023-11-07T18:27:33.473Z,16.94
2023-11-07T18:30:09.484Z,16.99
2023-11-07T18:33:37.690Z,16.77
2023-11-07T18:37:20.143Z,16.76
2023-11-07T18:39:48.606Z,16.66
2023-11-07T18:42:16.581Z,16.64
2023-11-07T18:44:47.347Z,16.53
2023-11-07T18:47:15.020Z,16.47
2023-11-07T18:49:44.039Z,16.46
2023-11-07T18:52:11.858Z,16.39
2023-11-07T18:54:42.648Z,16.39
2023-11-07T18:57:14.319Z,16.37
2023-11-07T18:59:42.650Z,16.36
2023-11-07T19:02:11.487Z,16.36
2023-11-07T19:04:40.884Z,16.33
2023-11-07T19:07:09.236Z,16.34
2023-11-07T19:09:37.464Z,16.39
2023-11-07T19:12:05.978Z,16.33
2023-11-07T19:14:39.869Z,16.39
2023-11-07T19:17:13.192Z,16.37
2023-11-07T19:19:42.794Z,16.36
2023-11-07T19:22:10.689Z,16.21
2023-11-07T19:24:39.620Z,16.28
2023-11-07T19:27:12.036Z,16.25
2023-11-07T19:29:40.445Z,16.28
2023-11-07T19:32:08.318Z,16.30
2023-11-07T19:34:36.297Z,16.27
2023-11-07T19:37:03.942Z,16.32
2023-11-07T19:39:32.659Z,16.35
2023-11-07T19:42:04.023Z,16.56
2023-11-07T19:44:34.677Z,16.54
2023-11-07T19:47:02.937Z,16.44
2023-11-07T19:49:30.634Z,16.49
2023-11-07T19:51:59.551Z,16.42
2023-11-07T19:54:35.845Z,16.54
2023-11-07T19:57:04.154Z,16.44
2023-11-07T19:59:35.396Z,16.41
2023-11-07T20:02:06.059Z,16.35
2023-11-07T20:04:36.304Z,16.40
2023-11-07T20:07:07.106Z,16.32
2023-11-07T20:09:38.388Z,16.28
2023-11-07T20:12:11.313Z,16.37
2023-11-07T20:14:39.775Z,16.50
2023-11-07T20:17:08.924Z,16.53
2023-11-07T20:19:38.498Z,16.60
2023-11-07T20:22:06.601Z,16.55
2023-11-07T20:24:37.680Z,16.53
2023-11-07T20:27:05.525Z,16.48
2023-11-07T20:29:36.232Z,16.49
2023-11-07T20:32:07.084Z,16.46
2023-11-07T20:34:44.647Z,16.45
2023-11-07T20:37:14.670Z,16.42
2023-11-07T20:39:44.877Z,16.36
2023-11-07T20:42:13.778Z,16.17
2023-11-07T20:44:44.567Z,16.10
2023-11-07T20:47:17.517Z,15.92
2023-11-07T20:49:49.899Z,15.93
2023-11-07T20:52:25.184Z,15.96
2023-11-07T20:54:57.064Z,16.03
2023-11-07T20:57:25.080Z,15.91
2023-11-07T20:59:55.189Z,15.80
2023-11-07T21:02:25.492Z,15.68
2023-11-07T21:04:58.040Z,15.71
2023-11-07T21:07:25.509Z,15.73
2023-11-07T21:09:55.132Z,15.72
2023-11-07T21:12:22.613Z,15.51
2023-11-07T21:14:52.530Z,15.52
2023-11-07T21:17:21.200Z,15.59
2023-11-07T21:19:50.479Z,15.53
2023-11-07T21:22:19.160Z,15.46
2023-11-07T21:24:48.936Z,15.51
2023-11-07T21:27:18.341Z,15.52
2023-11-07T21:29:46.980Z,15.46
2023-11-07T21:32:16.385Z,15.42
2023-11-07T21:34:46.136Z,15.33
2023-11-07T21:37:22.246Z,15.21
2023-11-07T21:39:51.421Z,15.22
2023-11-07T21:42:23.776Z,15.13
2023-11-07T21:44:52.110Z,15.09
2023-11-07T21:47:23.376Z,15.05
2023-11-07T21:49:51.279Z,14.86
2023-11-07T21:52:20.645Z,14.81
2023-11-07T21:54:48.568Z,14.89
2023-11-07T21:57:16.239Z,14.85
2023-11-07T21:59:44.012Z,14.73
2023-11-07T22:02:13.034Z,14.76
2023-11-07T22:04:41.180Z,14.78
2023-11-07T22:07:09.988Z,14.84
2023-11-07T22:09:39.348Z,14.89
2023-11-07T22:12:08.329Z,14.88
2023-11-07T22:14:38.143Z,14.86
2023-11-07T22:17:07.980Z,14.76
2023-11-07T22:19:37.209Z,14.76
2023-11-07T22:22:07.502Z,14.71
2023-11-07T22:24:35.689Z,14.75
2023-11-07T22:27:05.961Z,14.73
2023-11-07T22:29:34.094Z,14.63
2023-11-07T22:32:01.459Z,14.60
2023-11-07T22:34:30.274Z,14.51
2023-11-07T22:36:57.591Z,14.61
2023-11-07T22:39:25.140Z,14.53
2023-11-07T22:41:53.230Z,14.57
2023-11-07T22:44:28.682Z,14.56
2023-11-07T22:46:55.931Z,14.56
2023-11-07T22:49:26.609Z,14.34
2023-11-07T22:51:53.953Z,14.34
2023-11-07T22:54:23.199Z,14.29
2023-11-07T22:56:51.751Z,14.36
2023-11-07T22:59:22.634Z,14.42
2023-11-07T23:01:51.004Z,14.37
2023-11-07T23:04:18.935Z,14.39
2023-11-07T23:06:46.420Z,14.31
2023-11-07T23:09:14.123Z,14.34
2023-11-07T23:11:48.668Z,14.30
2023-11-07T23:14:18.467Z,14.27
2023-11-07T23:16:45.712Z,14.22
2023-11-07T23:19:13.540Z,14.19
2023-11-07T23:21:41.030Z,14.12
2023-11-07T23:24:09.644Z,14.07
2023-11-07T23:26:41.789Z,14.09
2023-11-07T23:29:13.947Z,14.03
2023-11-07T23:31:41.981Z,14.04
2023-11-07T23:34:18.575Z,14.01
2023-11-07T23:36:48.811Z,14.00
2023-11-07T23:39:17.412Z,13.97
2023-11-07T23:41:45.199Z,13.98
2023-11-07T23:44:14.833Z,13.96
2023-11-07T23:46:46.326Z,13.92
2023-11-07T23:49:14.270Z,13.94
2023-11-07T23:51:43.695Z,13.93
2023-11-07T23:54:11.322Z,13.94
2023-11-07T23:56:39.402Z,13.92
2023-11-07T23:59:07.108Z,13.95
